Time;durP1;ratioP1;P1;durP2;ratioP2;P2;SDS_P1;SDS_P2;PMS_P1;PMS_P2;Temp;Humidity;BMP_temperature;BMP_pressure;BME280_temperature;BME280_humidity;BME280_pressure;Samples;Min_cycle;Max_cycle;Signal;HPM_P1;HPM_P2
2023/05/07 00:01:13;;;;;;;11.17;10.20;;;17.10;30.10;;;;;;5070082;28;20552;-75
2023/05/07 00:03:39;;;;;;;11.83;11.03;;;17.20;30.60;;;;;;5072801;28;20247;-76
2023/05/07 00:06:04;;;;;;;10.70;9.87;;;17.20;31.00;;;;;;5067705;28;20170;-76
2023/05/07 00:08:30;;;;;;;10.80;10.20;;;17.20;31.00;;;;;;5068844;28;20766;-76
2023/05/07 00:10:56;;;;;;;11.33;10.73;;;17.20;31.00;;;;;;5070717;28;20490;-76
2023/05/07 00:13:21;;;;;;;10.43;9.83;;;17.20;30.90;;;;;;5069264;28;20619;-75
2023/05/07 00:15:47;;;;;;;10.80;10.10;;;17.20;30.80;;;;;;5050573;28;20183;-76
2023/05/07 00:18:12;;;;;;;11.00;10.40;;;17.20;30.80;;;;;;5071039;28;20232;-74
2023/05/07 00:20:38;;;;;;;11.10;10.40;;;17.20;31.20;;;;;;5069433;28;20171;-76
2023/05/07 00:23:03;;;;;;;12.40;11.60;;;17.10;31.20;;;;;;5067728;28;20206;-76
2023/05/07 00:25:29;;;;;;;10.43;10.03;;;17.10;32.10;;;;;;5071074;28;20549;-76
2023/05/07 00:27:54;;;;;;;11.80;11.20;;;17.20;31.40;;;;;;5067526;28;20637;-75
2023/05/07 00:30:20;;;;;;;12.07;11.17;;;17.10;31.20;;;;;;5068352;28;20195;-75
2023/05/07 00:32:45;;;;;;;11.57;10.77;;;17.10;31.30;;;;;;5071558;28;20202;-76
2023/05/07 00:35:12;;;;;;;11.70;11.03;;;17.10;31.50;;;;;;5069828;28;20174;-75
2023/05/07 00:37:37;;;;;;;11.47;10.80;;;17.10;31.50;;;;;;5051079;28;20183;-76
2023/05/07 00:40:06;;;;;;;12.30;11.60;;;17.10;31.70;;;;;;5067483;28;20502;-75
2023/05/07 00:42:32;;;;;;;12.00;11.03;;;17.10;31.60;;;;;;5068077;28;20218;-76
2023/05/07 00:44:58;;;;;;;12.13;11.23;;;17.10;31.70;;;;;;5068023;28;20433;-75
2023/05/07 00:47:25;;;;;;;12.33;11.53;;;17.10;31.70;;;;;;5069628;28;20255;-76
2023/05/07 00:49:51;;;;;;;13.17;12.27;;;17.00;31.70;;;;;;5051682;28;20418;-75
2023/05/07 00:52:19;;;;;;;11.97;11.37;;;17.00;31.90;;;;;;5068494;28;20445;-76
2023/05/07 00:54:45;;;;;;;12.00;11.10;;;17.10;31.80;;;;;;5067294;28;20405;-76
2023/05/07 00:57:11;;;;;;;11.73;11.13;;;17.00;31.80;;;;;;5068420;28;20493;-76
2023/05/07 00:59:36;;;;;;;11.90;11.20;;;17.00;31.90;;;;;;5069195;28;20684;-78
2023/05/07 01:02:02;;;;;;;12.80;12.00;;;17.00;32.10;;;;;;5068228;28;20450;-76
2023/05/07 01:04:28;;;;;;;12.80;12.00;;;16.80;33.40;;;;;;5051259;28;20175;-77
2023/05/07 01:06:56;;;;;;;12.20;11.50;;;16.60;34.10;;;;;;5067477;28;20183;-76
2023/05/07 01:09:23;;;;;;;11.90;11.27;;;16.50;34.80;;;;;;5070791;28;20171;-75
2023/05/07 01:11:50;;;;;;;13.30;12.30;;;16.60;34.40;;;;;;5066888;28;20762;-74
2023/05/07 01:14:16;;;;;;;13.13;12.33;;;16.60;33.90;;;;;;5066365;28;20512;-75
2023/05/07 01:16:42;;;;;;;13.23;12.33;;;16.60;34.00;;;;;;5068922;28;20536;-76
2023/05/07 01:19:10;;;;;;;13.07;12.30;;;16.70;34.00;;;;;;5068385;28;20552;-75
2023/05/07 01:21:38;;;;;;;12.70;12.00;;;16.80;33.80;;;;;;5049104;28;20270;-75
2023/05/07 01:24:04;;;;;;;13.93;13.23;;;16.80;33.90;;;;;;5050980;28;20413;-76
2023/05/07 01:26:30;;;;;;;13.37;12.43;;;16.80;33.90;;;;;;5065703;28;20410;-75
2023/05/07 01:28:56;;;;;;;13.13;12.33;;;16.70;33.60;;;;;;5065024;28;20417;-75
2023/05/07 01:31:23;;;;;;;12.43;11.83;;;16.70;34.20;;;;;;5067188;28;20487;-77
2023/05/07 01:33:51;;;;;;;13.60;12.90;;;16.70;34.10;;;;;;5067686;28;20195;-73
2023/05/07 01:36:18;;;;;;;13.33;12.60;;;16.70;33.80;;;;;;5067054;28;20420;-76
2023/05/07 01:38:44;;;;;;;13.13;12.43;;;16.70;33.70;;;;;;5069243;28;20536;-73
2023/05/07 01:41:11;;;;;;;13.60;12.90;;;16.80;33.70;;;;;;5071905;28;20441;-76
2023/05/07 01:43:37;;;;;;;12.50;11.80;;;16.70;33.70;;;;;;5067237;28;20524;-75
2023/05/07 01:46:03;;;;;;;14.20;13.10;;;16.70;33.60;;;;;;5067893;28;20487;-74
2023/05/07 01:48:29;;;;;;;13.40;12.70;;;16.70;33.50;;;;;;5067213;28;20759;-76
2023/05/07 01:50:55;;;;;;;13.23;12.53;;;16.70;33.60;;;;;;5066786;28;20461;-74
2023/05/07 01:53:21;;;;;;;12.37;11.67;;;16.70;33.70;;;;;;5065872;28;20503;-76
2023/05/07 01:55:46;;;;;;;13.00;12.30;;;16.70;33.80;;;;;;5065552;28;20410;-74
2023/05/07 01:58:12;;;;;;;14.77;13.87;;;16.70;33.70;;;;;;5067117;28;20175;-76
2023/05/07 02:00:37;;;;;;;13.60;12.80;;;16.70;33.50;;;;;;5046792;28;20176;-76
2023/05/07 02:03:03;;;;;;;13.00;12.30;;;16.70;33.60;;;;;;5049019;28;20301;-76
2023/05/07 02:05:28;;;;;;;13.30;12.50;;;16.70;33.60;;;;;;5067351;28;20224;-77
2023/05/07 02:07:54;;;;;;;12.90;12.20;;;16.70;33.60;;;;;;5069569;28;20168;-77
2023/05/07 02:10:19;;;;;;;12.67;12.07;;;16.60;33.70;;;;;;5065227;28;20163;-75
2023/05/07 02:12:45;;;;;;;12.80;12.00;;;16.60;34.00;;;;;;5065028;28;20203;-74
2023/05/07 02:15:10;;;;;;;13.50;12.70;;;16.60;34.00;;;;;;5065031;28;20683;-74
2023/05/07 02:17:57;;;;;;;13.53;12.77;;;16.60;33.80;;;;;;5063383;28;20250;-76
2023/05/07 02:20:23;;;;;;;14.50;13.67;;;16.70;34.60;;;;;;5065676;28;20688;-75
2023/05/07 02:22:48;;;;;;;14.17;12.73;;;16.70;34.00;;;;;;5063430;28;20433;-75
2023/05/07 02:25:14;;;;;;;13.13;12.30;;;16.60;34.20;;;;;;5065474;28;20167;-76
2023/05/07 02:27:39;;;;;;;14.37;13.57;;;16.50;35.30;;;;;;5066125;28;20172;-75
2023/05/07 02:30:05;;;;;;;13.70;13.00;;;16.30;35.80;;;;;;5065841;28;20539;-76
2023/05/07 02:32:31;;;;;;;12.53;11.83;;;16.10;36.80;;;;;;5063671;28;20187;-76
2023/05/07 02:34:57;;;;;;;13.67;12.87;;;16.00;36.80;;;;;;5064154;28;20421;-75
2023/05/07 02:37:22;;;;;;;13.60;12.80;;;16.00;36.80;;;;;;5060435;28;20249;-75
2023/05/07 02:39:47;;;;;;;13.77;12.97;;;16.00;36.90;;;;;;5046895;28;20211;-74
2023/05/07 02:42:13;;;;;;;14.23;13.43;;;16.10;36.80;;;;;;5046534;28;20198;-76
2023/05/07 02:44:38;;;;;;;13.13;12.43;;;16.20;36.90;;;;;;5041724;28;20191;-76
2023/05/07 02:47:04;;;;;;;13.80;13.10;;;16.30;36.40;;;;;;5042678;28;20597;-76
2023/05/07 02:52:52;;;;;;;13.27;12.63;;;16.40;35.70;;;;;;5046958;28;20199;-76
2023/05/07 02:55:17;;;;;;;13.53;12.50;;;16.40;35.30;;;;;;5027481;28;20410;-74
2023/05/07 02:57:43;;;;;;;13.63;12.93;;;16.40;35.10;;;;;;5044240;28;20549;-76
2023/05/07 03:00:17;;;;;;;13.10;12.30;;;16.40;35.10;;;;;;5026931;28;20200;-74
2023/05/07 03:02:43;;;;;;;13.47;12.40;;;16.40;35.40;;;;;;5024833;28;20645;-75
2023/05/07 03:05:09;;;;;;;13.77;12.97;;;16.40;35.50;;;;;;5043394;28;20414;-75
2023/05/07 03:07:36;;;;;;;12.70;12.00;;;16.40;35.40;;;;;;5045599;28;20428;-76
2023/05/07 03:10:02;;;;;;;13.67;12.97;;;16.40;35.40;;;;;;5027386;28;20180;-76
2023/05/07 03:12:27;;;;;;;14.17;13.47;;;16.40;35.20;;;;;;5047596;28;20426;-75
2023/05/07 03:14:53;;;;;;;14.13;13.33;;;16.30;35.20;;;;;;5044970;28;20445;-76
2023/05/07 03:17:18;;;;;;;13.17;12.47;;;16.40;35.30;;;;;;5048990;28;20180;-74
2023/05/07 03:19:44;;;;;;;12.10;11.50;;;16.30;35.40;;;;;;5046979;28;20257;-75
2023/05/07 03:22:09;;;;;;;13.53;12.53;;;16.30;35.40;;;;;;5048101;28;20192;-76
2023/05/07 03:24:35;;;;;;;14.03;13.33;;;16.30;35.40;;;;;;5047616;28;20241;-76
2023/05/07 03:27:01;;;;;;;13.97;13.17;;;16.30;35.40;;;;;;5046656;28;20215;-75
2023/05/07 03:29:26;;;;;;;14.43;13.63;;;16.30;35.40;;;;;;5047007;28;20184;-76
2023/05/07 03:31:52;;;;;;;14.83;13.83;;;16.20;35.40;;;;;;5047686;28;20547;-76
2023/05/07 03:34:21;;;;;;;13.10;12.40;;;16.20;35.70;;;;;;5054688;28;20190;-76
2023/05/07 03:36:50;;;;;;;12.73;12.03;;;16.20;35.80;;;;;;5048219;28;20169;-76
2023/05/07 03:39:16;;;;;;;13.30;12.50;;;16.20;35.60;;;;;;5048275;28;20454;-76
2023/05/07 03:41:41;;;;;;;14.23;13.40;;;16.20;35.90;;;;;;5045736;28;20425;-76
2023/05/07 03:44:07;;;;;;;12.77;12.07;;;16.20;36.00;;;;;;5046021;28;20233;-76
2023/05/07 03:46:33;;;;;;;13.50;12.70;;;16.20;35.90;;;;;;5046720;28;20180;-76
2023/05/07 03:48:59;;;;;;;13.43;12.73;;;16.20;36.10;;;;;;5029776;28;20180;-76
2023/05/07 03:51:25;;;;;;;11.97;11.37;;;16.20;36.10;;;;;;5045958;28;20426;-75
2023/05/07 03:53:52;;;;;;;12.30;11.60;;;16.20;36.00;;;;;;5030689;28;20705;-76
2023/05/07 03:56:18;;;;;;;12.77;11.87;;;16.20;36.20;;;;;;5046954;28;20407;-76
2023/05/07 03:58:44;;;;;;;11.90;11.30;;;16.20;36.20;;;;;;5048042;28;20834;-76
2023/05/07 04:01:10;;;;;;;12.90;12.20;;;16.20;35.80;;;;;;5030669;28;20426;-73
2023/05/07 04:03:35;;;;;;;11.97;11.43;;;16.20;35.50;;;;;;5047032;28;20212;-76
2023/05/07 04:06:01;;;;;;;12.00;11.40;;;16.10;35.50;;;;;;5049073;28;20657;-76
2023/05/07 04:08:26;;;;;;;11.20;10.70;;;16.10;35.40;;;;;;5030327;28;20179;-76
2023/05/07 04:10:56;;;;;;;12.63;11.83;;;16.10;35.50;;;;;;5049387;28;20179;-76
2023/05/07 04:13:22;;;;;;;12.33;11.63;;;16.10;35.50;;;;;;5049678;28;20709;-76
2023/05/07 04:15:48;;;;;;;12.20;11.60;;;16.10;35.60;;;;;;5050046;28;20469;-76
2023/05/07 04:18:14;;;;;;;12.63;11.93;;;16.00;35.90;;;;;;5048874;28;20196;-75
2023/05/07 04:20:40;;;;;;;12.27;11.57;;;16.00;36.20;;;;;;5049626;28;20567;-76
2023/05/07 04:23:05;;;;;;;13.30;12.70;;;16.00;36.00;;;;;;5050227;28;20204;-75
2023/05/07 04:25:31;;;;;;;12.27;11.63;;;16.00;36.10;;;;;;5050547;28;20184;-76
2023/05/07 04:27:56;;;;;;;14.07;13.27;;;16.00;36.10;;;;;;5051402;28;20518;-73
2023/05/07 04:30:22;;;;;;;13.30;12.60;;;16.00;36.30;;;;;;5052104;28;20537;-75
2023/05/07 04:32:48;;;;;;;12.87;12.27;;;15.90;36.70;;;;;;5050923;28;20566;-74
2023/05/07 04:35:14;;;;;;;12.47;11.87;;;15.90;36.70;;;;;;5053860;28;20547;-76
2023/05/07 04:37:39;;;;;;;12.97;12.37;;;15.90;36.70;;;;;;5049328;28;20251;-76
2023/05/07 04:40:06;;;;;;;13.13;12.23;;;16.00;36.80;;;;;;5052151;28;20898;-76
2023/05/07 04:42:32;;;;;;;13.47;12.67;;;16.00;36.80;;;;;;5052306;28;20234;-76
2023/05/07 04:44:57;;;;;;;12.73;12.20;;;16.00;36.80;;;;;;5053247;28;20833;-76
2023/05/07 04:47:23;;;;;;;12.60;12.00;;;15.90;36.70;;;;;;5052957;28;20212;-75
2023/05/07 04:49:48;;;;;;;13.50;12.50;;;16.00;36.80;;;;;;5052962;28;20638;-75
2023/05/07 04:52:15;;;;;;;13.93;13.13;;;16.00;36.80;;;;;;5032817;28;20682;-76
2023/05/07 04:54:40;;;;;;;13.30;12.70;;;16.00;36.80;;;;;;5053213;28;20199;-76
2023/05/07 04:57:06;;;;;;;12.97;12.27;;;16.00;36.80;;;;;;5054932;28;20783;-76
2023/05/07 04:59:32;;;;;;;13.20;12.60;;;16.00;36.80;;;;;;5052280;28;20273;-75
2023/05/07 05:01:58;;;;;;;13.83;13.03;;;16.00;36.80;;;;;;5053217;28;20196;-75
2023/05/07 05:04:23;;;;;;;14.33;13.17;;;16.00;36.80;;;;;;5051597;28;20418;-75
2023/05/07 05:06:49;;;;;;;14.40;13.70;;;16.00;36.80;;;;;;5053443;28;20173;-75
2023/05/07 05:09:15;;;;;;;12.90;12.30;;;16.00;36.80;;;;;;5054319;28;20584;-75
2023/05/07 05:11:41;;;;;;;13.40;12.80;;;15.90;36.70;;;;;;5053444;28;20167;-75
2023/05/07 05:14:07;;;;;;;14.00;13.30;;;15.90;36.70;;;;;;5053328;28;20410;-76
2023/05/07 05:16:32;;;;;;;13.50;12.90;;;16.00;36.90;;;;;;5052931;28;20665;-76
2023/05/07 05:18:58;;;;;;;13.33;12.63;;;15.80;37.20;;;;;;5053213;28;20230;-76
2023/05/07 05:21:23;;;;;;;12.93;12.27;;;15.80;37.60;;;;;;5051478;28;20882;-75
2023/05/07 05:23:49;;;;;;;13.50;12.80;;;15.90;37.60;;;;;;5053586;28;20196;-75
2023/05/07 05:26:15;;;;;;;14.27;13.50;;;15.90;37.40;;;;;;5053771;28;20302;-76
2023/05/07 05:28:40;;;;;;;13.70;12.93;;;15.90;37.40;;;;;;5053918;28;20259;-76
2023/05/07 05:31:06;;;;;;;14.33;13.53;;;15.90;37.40;;;;;;5051513;28;20172;-76
2023/05/07 05:33:31;;;;;;;13.37;12.57;;;15.70;38.30;;;;;;5036100;28;20210;-76
2023/05/07 05:35:57;;;;;;;12.57;11.97;;;15.60;38.90;;;;;;5053210;28;20630;-75
2023/05/07 05:38:23;;;;;;;13.67;13.03;;;15.50;39.80;;;;;;5057328;28;20239;-75
2023/05/07 05:40:48;;;;;;;14.03;13.23;;;15.40;39.10;;;;;;5056121;28;20179;-75
2023/05/07 05:43:14;;;;;;;14.20;13.40;;;15.50;39.50;;;;;;5052240;28;20282;-73
2023/05/07 05:45:40;;;;;;;14.47;13.47;;;15.50;39.50;;;;;;5035203;28;20171;-75
2023/05/07 05:48:05;;;;;;;14.73;13.93;;;15.50;39.30;;;;;;5053845;28;20421;-75
2023/05/07 05:50:31;;;;;;;14.07;13.27;;;15.60;39.40;;;;;;5052925;28;20210;-75
2023/05/07 05:52:57;;;;;;;14.23;12.93;;;15.70;39.10;;;;;;5051191;28;20202;-75
2023/05/07 05:55:23;;;;;;;13.10;12.30;;;15.80;39.00;;;;;;5053419;28;20539;-75
2023/05/07 05:57:49;;;;;;;14.00;13.30;;;15.80;38.80;;;;;;5053651;28;20502;-75
2023/05/07 06:00:16;;;;;;;14.70;13.90;;;15.90;38.50;;;;;;5053671;28;20210;-74
2023/05/07 06:02:42;;;;;;;14.30;13.50;;;16.00;38.20;;;;;;5034153;28;20529;-74
2023/05/07 06:05:08;;;;;;;13.87;12.87;;;16.10;37.20;;;;;;5051568;28;20442;-75
2023/05/07 06:07:34;;;;;;;14.47;13.57;;;16.20;36.90;;;;;;5033011;28;20418;-76
2023/05/07 06:10:00;;;;;;;13.97;13.27;;;16.10;36.90;;;;;;5053366;28;20472;-75
2023/05/07 06:12:26;;;;;;;14.20;13.50;;;16.10;37.50;;;;;;5053180;28;21002;-76
2023/05/07 06:14:52;;;;;;;14.23;13.50;;;16.20;36.90;;;;;;5069666;28;20421;-76
2023/05/07 06:17:17;;;;;;;13.67;12.97;;;16.30;37.10;;;;;;5059557;28;20179;-76
2023/05/07 06:19:43;;;;;;;14.57;13.77;;;16.40;37.20;;;;;;5058442;28;20282;-76
2023/05/07 06:22:08;;;;;;;14.93;14.20;;;16.40;36.20;;;;;;5057614;28;20565;-77
2023/05/07 06:24:34;;;;;;;14.63;13.83;;;16.40;35.80;;;;;;5079478;28;20234;-76
2023/05/07 06:26:59;;;;;;;15.00;14.20;;;16.40;36.40;;;;;;5083036;28;20700;-76
2023/05/07 06:29:30;;;;;;;14.83;13.93;;;16.40;35.80;;;;;;5080628;28;20178;-76
2023/05/07 06:31:55;;;;;;;15.30;14.30;;;16.50;35.50;;;;;;5064432;28;20203;-75
2023/05/07 06:34:21;;;;;;;14.10;13.30;;;16.60;35.90;;;;;;5087336;28;20800;-76
2023/05/07 06:36:46;;;;;;;13.30;12.60;;;16.60;35.90;;;;;;5085939;28;20189;-77
2023/05/07 06:39:12;;;;;;;13.67;12.97;;;16.70;36.00;;;;;;5085691;28;20218;-76
2023/05/07 06:41:38;;;;;;;13.80;13.00;;;16.70;34.80;;;;;;5073133;28;20175;-76
2023/05/07 06:44:04;;;;;;;13.20;12.60;;;16.60;35.10;;;;;;5058347;28;20228;-75
2023/05/07 06:46:30;;;;;;;14.17;13.47;;;16.50;35.40;;;;;;5076492;28;20436;-74
2023/05/07 06:48:56;;;;;;;13.40;12.77;;;16.60;35.50;;;;;;5077188;28;20468;-74
2023/05/07 06:51:22;;;;;;;14.00;13.20;;;16.70;35.60;;;;;;5076417;28;20172;-76
2023/05/07 06:53:48;;;;;;;14.00;13.30;;;16.70;35.00;;;;;;5074522;28;20436;-76
2023/05/07 06:56:13;;;;;;;14.17;13.37;;;16.80;35.40;;;;;;5075826;28;20418;-77
2023/05/07 06:58:39;;;;;;;14.60;13.70;;;16.70;35.40;;;;;;5059115;28;20245;-75
2023/05/07 07:01:04;;;;;;;13.43;12.80;;;16.70;35.30;;;;;;5074950;28;20187;-74
2023/05/07 07:03:30;;;;;;;13.33;12.73;;;16.80;34.90;;;;;;5077080;28;20215;-75
2023/05/07 07:05:56;;;;;;;12.80;12.10;;;16.80;34.80;;;;;;5074320;28;20652;-74
2023/05/07 07:08:22;;;;;;;13.70;13.00;;;16.90;34.00;;;;;;5076986;28;20537;-77
2023/05/07 07:10:48;;;;;;;13.90;13.20;;;16.90;34.80;;;;;;5056917;28;20190;-75
2023/05/07 07:13:13;;;;;;;14.20;13.40;;;17.00;34.20;;;;;;5074682;28;20437;-75
2023/05/07 07:15:39;;;;;;;13.40;12.80;;;17.00;34.00;;;;;;5076803;28;20195;-73
2023/05/07 07:18:06;;;;;;;13.30;12.60;;;17.10;33.50;;;;;;5055674;28;20236;-74
2023/05/07 07:20:31;;;;;;;13.43;12.73;;;17.20;33.50;;;;;;5076972;28;20453;-74
2023/05/07 07:22:57;;;;;;;15.97;14.87;;;17.20;33.00;;;;;;5087971;28;20510;-74
2023/05/07 07:25:23;;;;;;;13.40;12.70;;;17.30;33.40;;;;;;5076900;28;20239;-75
2023/05/07 07:27:49;;;;;;;11.70;11.20;;;17.40;32.50;;;;;;5073318;28;20196;-75
2023/05/07 07:30:14;;;;;;;10.90;10.40;;;17.40;32.20;;;;;;5073437;28;20410;-75
2023/05/07 07:32:40;;;;;;;11.40;10.70;;;17.50;32.20;;;;;;5072064;28;20464;-73
2023/05/07 07:35:06;;;;;;;11.17;10.60;;;17.50;32.10;;;;;;5072215;28;20175;-74
2023/05/07 07:37:32;;;;;;;11.27;10.67;;;17.60;31.90;;;;;;5074494;28;20180;-75
2023/05/07 07:39:57;;;;;;;13.07;12.10;;;17.70;31.70;;;;;;5057961;28;20467;-77
2023/05/07 07:42:23;;;;;;;11.83;11.00;;;17.70;31.70;;;;;;5055439;28;20225;-76
2023/05/07 07:44:48;;;;;;;10.23;9.73;;;17.80;31.40;;;;;;5057860;28;20175;-76
2023/05/07 07:47:14;;;;;;;12.07;11.30;;;17.90;31.40;;;;;;5072462;28;20203;-75
2023/05/07 07:49:40;;;;;;;10.70;10.03;;;17.90;31.20;;;;;;5072946;28;20175;-74
2023/05/07 07:52:05;;;;;;;9.63;9.10;;;18.00;31.40;;;;;;5071347;28;20530;-75
2023/05/07 07:54:31;;;;;;;10.80;10.20;;;18.10;31.60;;;;;;5072054;28;20254;-74
2023/05/07 07:56:56;;;;;;;11.20;10.60;;;18.20;30.90;;;;;;5073772;28;20179;-74
2023/05/07 07:59:22;;;;;;;10.60;9.80;;;18.20;30.90;;;;;;5081240;28;20206;-75
2023/05/07 08:01:50;;;;;;;10.87;10.27;;;18.30;31.00;;;;;;5071625;28;20184;-76
2023/05/07 08:04:15;;;;;;;9.90;9.40;;;18.40;30.70;;;;;;5072074;28;20649;-74
2023/05/07 08:06:41;;;;;;;8.93;8.43;;;18.50;30.00;;;;;;5072429;28;20540;-73
2023/05/07 08:09:06;;;;;;;9.60;9.10;;;18.50;30.00;;;;;;5072636;28;20668;-75
2023/05/07 08:11:32;;;;;;;9.70;9.10;;;18.50;30.00;;;;;;5054057;28;20258;-75
2023/05/07 08:13:57;;;;;;;9.13;8.40;;;18.50;30.00;;;;;;5073209;28;20202;-72
2023/05/07 08:16:23;;;;;;;10.60;10.00;;;18.60;30.50;;;;;;5072025;28;20265;-74
2023/05/07 08:18:48;;;;;;;10.47;9.67;;;18.60;30.20;;;;;;5073261;28;20234;-74
2023/05/07 08:21:14;;;;;;;10.17;9.47;;;18.70;30.20;;;;;;5072476;28;20233;-75
2023/05/07 08:23:40;;;;;;;10.60;9.90;;;18.80;29.10;;;;;;5055903;28;20195;-75
2023/05/07 08:26:07;;;;;;;10.63;9.93;;;18.90;29.20;;;;;;5073648;28;20808;-72
2023/05/07 08:28:32;;;;;;;9.53;9.03;;;18.90;29.20;;;;;;5071162;28;20194;-76
2023/05/07 08:31:00;;;;;;;9.80;9.10;;;19.00;29.10;;;;;;5072089;28;20433;-75
2023/05/07 08:33:25;;;;;;;9.60;8.73;;;19.10;29.30;;;;;;5072040;28;20202;-74
2023/05/07 08:35:51;;;;;;;8.83;8.23;;;19.20;28.60;;;;;;5055023;28;20826;-75
2023/05/07 08:38:16;;;;;;;9.20;8.70;;;19.30;28.20;;;;;;5073610;28;20168;-73
2023/05/07 08:40:42;;;;;;;9.50;8.70;;;19.40;28.40;;;;;;5071163;28;20214;-75
2023/05/07 08:43:08;;;;;;;9.00;8.30;;;19.50;27.90;;;;;;5056379;28;20653;-75
2023/05/07 08:45:34;;;;;;;9.10;8.70;;;19.60;27.80;;;;;;5074182;28;20179;-74
2023/05/07 08:48:03;;;;;;;8.00;7.60;;;19.60;28.10;;;;;;5055617;28;20756;-75
2023/05/07 08:50:29;;;;;;;8.40;8.00;;;19.80;27.50;;;;;;5057264;28;20418;-76
2023/05/07 08:52:56;;;;;;;8.03;7.70;;;19.90;26.70;;;;;;5074540;28;20564;-75
2023/05/07 08:55:22;;;;;;;7.87;7.37;;;20.10;26.70;;;;;;5072605;28;20413;-75
2023/05/07 08:57:48;;;;;;;7.93;7.63;;;20.20;26.00;;;;;;5073582;28;20409;-75
2023/05/07 09:00:14;;;;;;;7.13;6.73;;;20.40;25.60;;;;;;5074286;28;20461;-74
2023/05/07 09:02:40;;;;;;;7.77;7.37;;;20.40;26.00;;;;;;5073851;28;20890;-75
2023/05/07 09:05:06;;;;;;;8.23;7.83;;;20.50;25.90;;;;;;5054181;28;20458;-75
2023/05/07 09:07:31;;;;;;;7.27;6.97;;;20.50;25.30;;;;;;5056197;28;20199;-75
2023/05/07 09:09:57;;;;;;;7.80;7.40;;;20.70;25.00;;;;;;5072808;28;20417;-74
2023/05/07 09:12:23;;;;;;;6.83;6.53;;;20.70;24.60;;;;;;5073465;28;20700;-74
2023/05/07 09:14:49;;;;;;;7.67;7.27;;;20.90;24.10;;;;;;5073547;28;20556;-73
2023/05/07 09:17:16;;;;;;;7.87;7.23;;;21.10;24.10;;;;;;5055473;28;20573;-74
2023/05/07 09:19:43;;;;;;;7.93;7.53;;;21.10;23.90;;;;;;5073970;28;20469;-75
2023/05/07 09:22:08;;;;;;;8.33;7.93;;;21.20;23.80;;;;;;5073001;28;20508;-75
2023/05/07 09:24:34;;;;;;;8.40;8.00;;;21.30;23.30;;;;;;5074180;28;20437;-75
2023/05/07 09:27:02;;;;;;;7.77;7.47;;;21.40;23.20;;;;;;5074274;28;20175;-75
2023/05/07 09:29:29;;;;;;;7.73;7.40;;;21.40;23.20;;;;;;5074266;28;20179;-74
2023/05/07 09:31:55;;;;;;;7.27;6.80;;;21.60;22.80;;;;;;5072823;28;20429;-74
2023/05/07 09:34:22;;;;;;;7.60;7.00;;;21.70;22.80;;;;;;5074424;28;20427;-75
2023/05/07 09:36:47;;;;;;;7.90;7.60;;;21.90;21.80;;;;;;5056222;28;20432;-75
2023/05/07 09:39:13;;;;;;;8.00;7.60;;;22.10;22.00;;;;;;5056173;28;20962;-75
2023/05/07 09:41:46;;;;;;;7.47;7.00;;;22.40;21.30;;;;;;5075671;28;20179;-75
2023/05/07 09:44:14;;;;;;;7.93;7.43;;;22.70;19.70;;;;;;5073916;28;20544;-75
2023/05/07 09:46:42;;;;;;;8.00;7.67;;;22.90;19.50;;;;;;5073073;28;20836;-75
2023/05/07 09:49:15;;;;;;;7.80;7.40;;;23.00;18.70;;;;;;5073473;28;20450;-74
2023/05/07 09:51:49;;;;;;;10.00;9.30;;;23.10;18.50;;;;;;5073084;28;20435;-75
2023/05/07 09:54:15;;;;;;;7.50;7.20;;;23.20;18.00;;;;;;5055547;28;20421;-75
2023/05/07 09:56:41;;;;;;;7.47;7.07;;;23.30;18.50;;;;;;5073618;28;20418;-74
2023/05/07 09:59:08;;;;;;;8.43;8.00;;;23.30;18.10;;;;;;5072888;28;20457;-75
2023/05/07 10:01:36;;;;;;;7.93;7.53;;;23.30;17.90;;;;;;5072909;28;20756;-75
2023/05/07 10:04:08;;;;;;;7.80;7.30;;;23.30;17.50;;;;;;5073447;28;20416;-74
2023/05/07 10:06:34;;;;;;;7.40;7.00;;;23.40;17.60;;;;;;5089344;28;20414;-75
2023/05/07 10:09:01;;;;;;;8.30;7.90;;;23.50;17.70;;;;;;5055630;28;20418;-75
2023/05/07 10:11:27;;;;;;;8.23;7.73;;;23.60;17.60;;;;;;5073393;28;20425;-75
2023/05/07 10:13:53;;;;;;;7.67;7.27;;;23.60;18.40;;;;;;5073848;28;20487;-75
2023/05/07 10:16:20;;;;;;;8.07;7.67;;;23.70;18.40;;;;;;5073420;28;20445;-76
2023/05/07 10:18:46;;;;;;;7.83;7.40;;;23.70;17.80;;;;;;5077536;28;20463;-75
2023/05/07 10:21:20;;;;;;;7.30;6.93;;;23.90;18.00;;;;;;5077234;28;20448;-74
2023/05/07 10:24:10;;;;;;;7.77;7.47;;;23.90;17.40;;;;;;5078058;28;20838;-80
2023/05/07 10:26:36;;;;;;;7.47;7.17;;;23.90;17.80;;;;;;5078453;28;20410;-79
2023/05/07 10:29:10;;;;;;;8.10;7.77;;;23.90;17.50;;;;;;5043168;28;20421;-76
2023/05/07 10:31:58;;;;;;;7.83;7.50;;;23.80;17.20;;;;;;5058750;28;20436;-75
2023/05/07 10:34:32;;;;;;;6.77;6.07;;;23.90;17.70;;;;;;5077050;28;20401;-75
2023/05/07 10:36:58;;;;;;;6.97;6.67;;;24.00;16.90;;;;;;5076869;28;20412;-75
2023/05/07 10:39:24;;;;;;;7.37;7.07;;;24.00;17.10;;;;;;5076303;28;20483;-76
2023/05/07 10:41:50;;;;;;;7.30;6.90;;;24.10;16.00;;;;;;5058468;28;20930;-75
2023/05/07 10:44:29;;;;;;;7.23;6.83;;;24.10;16.50;;;;;;5058762;28;20640;-75
2023/05/07 10:47:09;;;;;;;7.63;7.23;;;24.10;16.40;;;;;;5076285;28;20171;-77
2023/05/07 10:49:36;;;;;;;6.83;6.63;;;24.00;16.10;;;;;;5077308;28;20405;-75
2023/05/07 10:52:16;;;;;;;7.47;7.17;;;23.80;16.90;;;;;;5058067;28;20450;-76
2023/05/07 10:54:44;;;;;;;8.53;8.10;;;23.60;17.20;;;;;;5076321;28;20777;-75
2023/05/07 10:57:31;;;;;;;7.47;7.10;;;23.50;17.10;;;;;;5076086;28;20416;-76
2023/05/07 10:59:57;;;;;;;10.77;9.97;;;23.60;16.60;;;;;;5058603;28;20504;-76
2023/05/07 11:02:23;;;;;;;7.30;6.90;;;23.70;16.10;;;;;;5074200;28;20452;-75
2023/05/07 11:05:23;;;;;;;7.47;7.17;;;23.70;16.30;;;;;;5075203;28;20168;-76
2023/05/07 11:07:59;;;;;;;7.20;6.90;;;23.60;16.90;;;;;;5076213;28;20167;-76
2023/05/07 11:10:48;;;;;;;7.73;7.03;;;23.60;17.20;;;;;;5077103;28;20911;-75
2023/05/07 11:13:15;;;;;;;6.97;6.47;;;23.50;17.80;;;;;;5078253;28;20433;-77
2023/05/07 11:15:43;;;;;;;7.30;6.93;;;23.50;18.10;;;;;;5064776;28;20417;-77
2023/05/07 11:18:10;;;;;;;6.50;6.20;;;23.40;17.30;;;;;;5064543;28;20409;-77
2023/05/07 11:20:53;;;;;;;7.63;7.20;;;23.40;17.20;;;;;;5076337;28;20464;-76
2023/05/07 11:23:37;;;;;;;7.50;7.03;;;23.40;17.40;;;;;;5075311;28;20466;-77
2023/05/07 11:26:05;;;;;;;6.93;6.63;;;23.40;17.40;;;;;;5057207;28;20414;-75
2023/05/07 11:28:35;;;;;;;7.00;6.60;;;23.40;17.90;;;;;;5074590;28;20413;-75
2023/05/07 11:31:02;;;;;;;7.00;6.70;;;23.30;17.90;;;;;;5075133;28;20471;-75
2023/05/07 11:33:27;;;;;;;7.30;6.90;;;23.20;18.00;;;;;;5073533;28;20429;-75
2023/05/07 11:35:54;;;;;;;5.53;5.33;;;23.00;18.30;;;;;;5074878;28;20500;-76
2023/05/07 11:38:19;;;;;;;7.90;5.77;;;22.90;16.70;;;;;;5056986;28;20267;-75
2023/05/07 11:40:51;;;;;;;6.77;6.00;;;22.80;16.40;;;;;;5073829;28;20911;-78
2023/05/07 11:43:17;;;;;;;6.80;6.50;;;22.80;16.80;;;;;;5051217;28;20430;-75
2023/05/07 11:45:42;;;;;;;6.57;6.27;;;22.60;17.00;;;;;;5073508;28;20497;-75
2023/05/07 11:48:08;;;;;;;6.33;6.03;;;22.60;17.50;;;;;;5073205;28;20170;-78
2023/05/07 11:50:34;;;;;;;6.83;6.53;;;22.50;18.20;;;;;;5073715;28;20179;-73
2023/05/07 11:52:59;;;;;;;6.03;5.73;;;22.50;19.60;;;;;;5074355;28;20192;-74
2023/05/07 11:55:25;;;;;;;7.83;7.33;;;22.40;20.40;;;;;;5073092;28;20325;-75
2023/05/07 11:57:51;;;;;;;7.70;7.30;;;22.40;21.40;;;;;;5056315;28;20179;-76
2023/05/07 12:00:17;;;;;;;10.07;9.60;;;22.30;23.20;;;;;;5074417;28;20480;-75
2023/05/07 12:02:45;;;;;;;8.17;7.67;;;22.30;24.60;;;;;;5037121;28;1065134;-76
2023/05/07 12:05:10;;;;;;;8.57;7.73;;;22.10;26.40;;;;;;5057325;28;20214;-75
2023/05/07 12:07:36;;;;;;;8.37;7.80;;;22.00;28.20;;;;;;5075389;28;20449;-76
2023/05/07 12:10:06;;;;;;;7.90;7.50;;;21.80;29.40;;;;;;5075267;28;20178;-75
2023/05/07 12:12:41;;;;;;;9.63;8.93;;;21.60;30.60;;;;;;5074316;28;20191;-76
2023/05/07 12:15:08;;;;;;;13.00;8.80;;;21.40;32.80;;;;;;5058021;28;20932;-76
2023/05/07 12:17:33;;;;;;;10.60;8.57;;;21.00;39.20;;;;;;5066963;28;20441;-76
2023/05/07 12:20:00;;;;;;;10.70;8.07;;;20.60;36.60;;;;;;5054029;28;20462;-77
2023/05/07 12:22:25;;;;;;;10.63;8.30;;;20.40;33.30;;;;;;5054993;28;20188;-77
2023/05/07 12:24:58;;;;;;;8.47;7.67;;;20.30;33.20;;;;;;5056106;28;20409;-76
2023/05/07 12:27:23;;;;;;;8.73;8.33;;;20.20;30.10;;;;;;5057658;28;20415;-77
2023/05/07 12:29:50;;;;;;;8.83;8.10;;;19.90;35.00;;;;;;5056850;28;20430;-76
2023/05/07 12:32:20;;;;;;;8.83;8.33;;;19.70;35.70;;;;;;5053913;28;20314;-76
2023/05/07 12:34:49;;;;;;;9.53;8.83;;;19.50;36.30;;;;;;5053990;28;20971;-76